Lampe, Missouri
Current Conditions -  °F | °C
As of 6:35 AM on Wednesday 26 Nov 2014 (Local Time) from KFWB Reporting Station
Overcast Overcast  
Wind Chill:   Ceiling: 7000
Heat Index:   Visibility: 10mi
Dew Point: -4°   Wind: 3mph
Humidity: 70%   Direction: 70°ENE
Pressure: 29.95"   Gusts: NA
Location:  36.56°N, 93.44°W
Report Text: KFWB 261235Z AUTO 07003KT 10SM BKN070 OVC100 01/M04 A2995 RMK AO2
Loading
Personal Weather Stations






























Interactive Weather Map New forecast layout! Learn more

10-Day Weather Forecast

Advertisements
Track Severe Weather on mobile